Time,TemperatureF,DewpointF,PressureIn,WindDirection,WindDirectionDegrees,WindSpeedMPH,WindSpeedGustMPH,Humidity,HourlyPrecipIn,Conditions,Clouds,dailyrainin,SoftwareType,DateUTC
2013-10-22 00:00:00,32.0,25.0,30.03,NNW,338,0.0,0.0,75,0.00,,,-99.99,Weather View 32 v60,2013-10-22 05:00:00,
2013-10-22 00:29:00,34.0,24.9,29.38,WSW,248,5.0,11.0,69,0.00,,,-99.99,Weather View 32 v60,2013-10-22 05:29:00,
2013-10-22 00:30:00,34.0,24.9,29.38,WSW,248,5.0,11.0,69,0.00,,,-99.99,Weather View 32 v60,2013-10-22 05:30:00,
2013-10-22 00:59:00,34.0,24.9,29.38,SW,225,5.0,11.0,69,0.00,,,-99.99,Weather View 32 v60,2013-10-22 05:59:00,
2013-10-22 01:00:00,31.0,25.3,30.04,West,270,0.0,0.0,79,0.00,,,-99.99,Weather View 32 v60,2013-10-22 06:00:00,
2013-10-22 01:29:00,34.0,25.6,29.38,WSW,248,5.0,11.0,71,0.00,,,-99.99,Weather View 32 v60,2013-10-22 06:29:00,
2013-10-22 01:30:00,34.0,25.6,29.38,WSW,248,5.0,11.0,71,0.00,,,-99.99,Weather View 32 v60,2013-10-22 06:30:00,
2013-10-22 01:59:00,33.0,25.0,29.39,West,270,4.0,11.0,72,0.00,,,-99.99,Weather View 32 v60,2013-10-22 06:59:00,
2013-10-22 02:00:00,30.0,24.9,30.05,West,270,0.0,0.0,81,0.00,,,-99.99,Weather View 32 v60,2013-10-22 07:00:00,
2013-10-22 02:29:00,33.0,25.6,29.39,SW,225,6.0,9.0,74,0.00,,,-99.99,Weather View 32 v60,2013-10-22 07:29:00,
2013-10-22 02:30:00,33.0,25.6,29.39,SW,225,6.0,9.0,74,0.00,,,-99.99,Weather View 32 v60,2013-10-22 07:30:00,
2013-10-22 02:59:00,32.0,25.6,29.39,West,270,6.0,10.0,77,0.00,,,-99.99,Weather View 32 v60,2013-10-22 07:59:00,
2013-10-22 03:00:00,29.0,24.5,30.05,WNW,292,0.0,0.0,83,0.00,,,-99.99,Weather View 32 v60,2013-10-22 08:00:00,
2013-10-22 03:29:00,32.0,25.6,29.39,West,270,5.0,10.0,77,0.00,,,-99.99,Weather View 32 v60,2013-10-22 08:29:00,
2013-10-22 03:30:00,32.0,25.6,29.39,West,270,5.0,10.0,77,0.00,,,-99.99,Weather View 32 v60,2013-10-22 08:30:00,
2013-10-22 03:59:00,32.0,26.2,29.39,WNW,292,4.0,8.0,79,0.00,,,-99.99,Weather View 32 v60,2013-10-22 08:59:00,
2013-10-22 04:00:00,29.0,25.1,30.06,WNW,292,0.0,0.0,85,0.00,,,-99.99,Weather View 32 v60,2013-10-22 09:00:00,
2013-10-22 04:29:00,32.0,26.5,29.40,WSW,248,4.0,8.0,80,0.00,,,-99.99,Weather View 32 v60,2013-10-22 09:29:00,
2013-10-22 04:30:00,32.0,26.5,29.40,WSW,248,4.0,8.0,80,0.00,,,-99.99,Weather View 32 v60,2013-10-22 09:30:00,
2013-10-22 04:59:00,33.0,27.8,29.39,WNW,292,5.0,9.0,81,0.00,,,-99.99,Weather View 32 v60,2013-10-22 09:59:00,
2013-10-22 05:00:00,28.0,24.6,30.07,NNW,338,0.0,0.0,87,0.00,,,-99.99,Weather View 32 v60,2013-10-22 10:00:00,
2013-10-22 05:29:00,33.0,27.8,29.41,West,270,5.0,11.0,81,0.00,,,-99.99,Weather View 32 v60,2013-10-22 10:29:00,
2013-10-22 05:30:00,28.0,25.2,30.07,WNW,292,0.0,0.0,89,0.00,,,-99.99,Weather View 32 v60,2013-10-22 10:30:00,
2013-10-22 05:59:00,33.0,28.1,29.40,WNW,292,6.0,11.0,82,0.00,,,-99.99,Weather View 32 v60,2013-10-22 10:59:00,
2013-10-22 06:00:00,27.0,24.5,30.08,WNW,292,0.0,0.0,90,0.00,,,-99.99,Weather View 32 v60,2013-10-22 11:00:00,
2013-10-22 06:29:00,32.0,27.7,29.41,South,180,4.0,10.0,84,0.00,,,-99.99,Weather View 32 v60,2013-10-22 11:29:00,
2013-10-22 06:30:00,27.0,25.0,30.07,WNW,292,0.0,0.0,92,0.00,,,-99.99,Weather View 32 v60,2013-10-22 11:30:00,
2013-10-22 06:59:00,31.0,27.3,29.39,NNE,22,2.0,8.0,86,0.00,,,-99.99,Weather View 32 v60,2013-10-22 11:59:00,
2013-10-22 07:00:00,26.0,24.0,30.07,NNW,338,0.0,0.0,92,0.00,,,-99.99,Weather View 32 v60,2013-10-22 12:00:00,
2013-10-22 07:29:00,31.0,27.9,29.41,SW,225,4.0,6.0,88,0.00,,,-99.99,Weather View 32 v60,2013-10-22 12:29:00,
2013-10-22 07:30:00,27.0,25.2,30.07,NNW,338,0.0,0.0,93,0.00,,,-99.99,Weather View 32 v60,2013-10-22 12:30:00,
2013-10-22 07:59:00,31.0,28.1,29.40,WSW,248,2.0,6.0,89,0.00,,,-99.99,Weather View 32 v60,2013-10-22 12:59:00,
2013-10-22 08:00:00,28.0,26.2,30.07,WNW,292,0.0,0.0,93,0.00,,,-99.99,Weather View 32 v60,2013-10-22 13:00:00,
2013-10-22 08:29:00,32.0,28.8,29.42,SW,225,3.0,6.0,88,0.00,,,-99.99,Weather View 32 v60,2013-10-22 13:29:00,
2013-10-22 08:30:00,32.0,29.9,30.06,NNW,338,0.0,0.0,92,0.00,,,-99.99,Weather View 32 v60,2013-10-22 13:30:00,
2013-10-22 08:59:00,35.0,30.9,29.41,WNW,292,5.0,8.0,85,0.00,,,-99.99,Weather View 32 v60,2013-10-22 13:59:00,
2013-10-22 09:00:00,35.0,31.8,30.06,NNE,22,0.0,0.0,88,0.00,,,-99.99,Weather View 32 v60,2013-10-22 14:00:00,
2013-10-22 09:29:00,37.0,31.7,29.42,WNW,292,6.0,8.0,81,0.00,,,-99.99,Weather View 32 v60,2013-10-22 14:29:00,
2013-10-22 09:30:00,36.0,31.6,30.06,NE,45,0.0,0.0,84,0.00,,,-99.99,Weather View 32 v60,2013-10-22 14:30:00,
2013-10-22 09:59:00,39.0,32.7,29.42,WNW,292,6.0,10.0,78,0.00,,,-99.99,Weather View 32 v60,2013-10-22 14:59:00,
2013-10-22 10:00:00,38.0,33.3,30.06,ENE,68,0.0,0.0,83,0.00,,,-99.99,Weather View 32 v60,2013-10-22 15:00:00,
2013-10-22 10:29:00,40.0,32.0,29.41,ENE,68,2.0,10.0,73,0.00,,,-99.99,Weather View 32 v60,2013-10-22 15:29:00,
2013-10-22 10:30:00,39.0,32.7,30.06,NNE,22,0.0,0.0,78,0.00,,,-99.99,Weather View 32 v60,2013-10-22 15:30:00,
2013-10-22 10:59:00,42.0,32.2,29.41,NW,315,4.0,11.0,68,0.00,,,-99.99,Weather View 32 v60,2013-10-22 15:59:00,
2013-10-22 11:00:00,41.0,34.3,30.06,ESE,112,0.0,0.0,77,0.00,,,-99.99,Weather View 32 v60,2013-10-22 16:00:00,
2013-10-22 11:29:00,43.0,32.0,29.41,NNW,338,4.0,11.0,65,0.00,,,-99.99,Weather View 32 v60,2013-10-22 16:29:00,
2013-10-22 11:30:00,41.0,33.3,30.05,NNE,22,0.0,0.0,74,0.00,,,-99.99,Weather View 32 v60,2013-10-22 16:30:00,
2013-10-22 11:59:00,45.0,32.7,29.40,North,0,3.0,10.0,62,0.00,,,-99.99,Weather View 32 v60,2013-10-22 16:59:00,
2013-10-22 12:00:00,43.0,33.9,30.04,North,0,0.0,0.0,70,0.00,,,-99.99,Weather View 32 v60,2013-10-22 17:00:00,
2013-10-22 12:29:00,45.0,31.5,29.38,NE,45,3.0,11.0,59,0.00,,,-99.99,Weather View 32 v60,2013-10-22 17:29:00,
2013-10-22 12:30:00,45.0,35.1,30.03,NE,45,0.0,0.0,68,0.00,,,-99.99,Weather View 32 v60,2013-10-22 17:30:00,
2013-10-22 12:59:00,47.0,30.7,29.38,WNW,292,3.0,11.0,53,0.00,,,-99.99,Weather View 32 v60,2013-10-22 17:59:00,
2013-10-22 13:00:00,46.0,34.1,30.02,NE,45,0.0,0.0,63,0.00,,,-99.99,Weather View 32 v60,2013-10-22 18:00:00,
2013-10-22 13:29:00,47.0,30.3,29.38,North,0,6.0,11.0,52,0.00,,,-99.99,Weather View 32 v60,2013-10-22 18:29:00,
2013-10-22 13:30:00,46.0,32.5,30.01,East,90,0.0,1.0,59,0.00,,,-99.99,Weather View 32 v60,2013-10-22 18:30:00,
2013-10-22 13:59:00,47.0,29.3,29.38,North,0,5.0,11.0,50,0.00,,,-99.99,Weather View 32 v60,2013-10-22 18:59:00,
2013-10-22 14:00:00,45.0,31.1,30.01,East,90,0.0,1.0,58,0.00,,,-99.99,Weather View 32 v60,2013-10-22 19:00:00,
2013-10-22 14:29:00,47.0,28.3,29.37,NW,315,9.0,11.0,48,0.00,,,-99.99,Weather View 32 v60,2013-10-22 19:29:00,
2013-10-22 14:30:00,46.0,31.6,30.01,NNE,22,0.0,1.0,57,0.00,,,-99.99,Weather View 32 v60,2013-10-22 19:30:00,
2013-10-22 14:59:00,47.0,29.3,29.36,North,0,2.0,11.0,50,0.00,,,-99.99,Weather View 32 v60,2013-10-22 19:59:00,
2013-10-22 15:00:00,45.0,31.5,30.01,NNE,22,0.0,1.0,59,0.00,,,-99.99,Weather View 32 v60,2013-10-22 20:00:00,
2013-10-22 15:29:00,47.0,28.3,29.37,NNE,22,5.0,11.0,48,0.00,,,-99.99,Weather View 32 v60,2013-10-22 20:29:00,
2013-10-22 15:30:00,46.0,32.0,30.01,NNE,22,0.0,1.0,58,0.00,,,-99.99,Weather View 32 v60,2013-10-22 20:30:00,
2013-10-22 15:59:00,47.0,29.8,29.37,NE,45,4.0,11.0,51,0.00,,,-99.99,Weather View 32 v60,2013-10-22 20:59:00,
2013-10-22 16:00:00,45.0,30.7,30.02,ENE,68,0.0,1.0,57,0.00,,,-99.99,Weather View 32 v60,2013-10-22 21:00:00,
2013-10-22 16:29:00,47.0,29.3,29.37,NNW,338,4.0,11.0,50,0.00,,,-99.99,Weather View 32 v60,2013-10-22 21:29:00,
2013-10-22 16:30:00,44.0,30.6,30.02,NNE,22,0.0,0.0,59,0.00,,,-99.99,Weather View 32 v60,2013-10-22 21:30:00,
2013-10-22 16:59:00,47.0,27.8,29.38,North,0,3.0,11.0,47,0.00,,,-99.99,Weather View 32 v60,2013-10-22 21:59:00,
2013-10-22 17:00:00,44.0,31.0,30.04,NE,45,0.0,0.0,60,0.00,,,-99.99,Weather View 32 v60,2013-10-22 22:00:00,
2013-10-22 17:29:00,46.0,27.9,29.39,NNW,338,3.0,11.0,49,0.00,,,-99.99,Weather View 32 v60,2013-10-22 22:29:00,
2013-10-22 17:30:00,43.0,31.2,30.04,NNE,22,0.0,0.0,63,0.00,,,-99.99,Weather View 32 v60,2013-10-22 22:30:00,
2013-10-22 17:59:00,46.0,28.4,29.39,WNW,292,2.0,11.0,50,0.00,,,-99.99,Weather View 32 v60,2013-10-22 22:59:00,
2013-10-22 18:00:00,42.0,30.7,30.03,NNE,22,0.0,0.0,64,0.00,,,-99.99,Weather View 32 v60,2013-10-22 23:00:00,
2013-10-22 18:29:00,45.0,28.4,29.39,NNW,338,2.0,10.0,52,0.00,,,-99.99,Weather View 32 v60,2013-10-22 23:29:00,
2013-10-22 18:30:00,42.0,31.5,30.04,NE,45,0.0,0.0,66,0.00,,,-99.99,Weather View 32 v60,2013-10-22 23:30:00,
2013-10-22 18:59:00,44.0,27.5,29.41,North,0,3.0,10.0,52,0.00,,,-99.99,Weather View 32 v60,2013-10-22 23:59:00,
2013-10-22 19:00:00,41.0,30.5,30.04,NNE,22,0.0,0.0,66,0.00,,,-99.99,Weather View 32 v60,2013-10-23 00:00:00,
2013-10-22 19:29:00,44.0,28.4,29.41,East,90,1.0,10.0,54,0.00,,,-99.99,Weather View 32 v60,2013-10-23 00:29:00,
2013-10-22 19:30:00,41.0,30.1,30.05,NE,45,0.0,0.0,65,0.00,,,-99.99,Weather View 32 v60,2013-10-23 00:30:00,
2013-10-22 19:59:00,43.0,28.4,29.41,NNW,338,5.0,10.0,56,0.00,,,-99.99,Weather View 32 v60,2013-10-23 00:59:00,
2013-10-22 20:00:00,40.0,29.2,30.06,NNE,22,0.0,0.0,65,0.00,,,-99.99,Weather View 32 v60,2013-10-23 01:00:00,
2013-10-22 20:29:00,43.0,29.2,29.42,North,0,3.0,10.0,58,0.00,,,-99.99,Weather View 32 v60,2013-10-23 01:29:00,
2013-10-22 20:30:00,40.0,29.2,30.07,NE,45,0.0,0.0,65,0.00,,,-99.99,Weather View 32 v60,2013-10-23 01:30:00,
2013-10-22 20:59:00,42.0,29.5,29.42,NW,315,6.0,10.0,61,0.00,,,-99.99,Weather View 32 v60,2013-10-23 01:59:00,
2013-10-22 21:00:00,40.0,29.5,30.07,NE,45,0.0,0.0,66,0.00,,,-99.99,Weather View 32 v60,2013-10-23 02:00:00,
2013-10-22 21:29:00,41.0,29.4,29.42,North,0,4.0,8.0,63,0.00,,,-99.99,Weather View 32 v60,2013-10-23 02:29:00,
2013-10-22 21:30:00,39.0,29.3,30.08,East,90,0.0,0.0,68,0.00,,,-99.99,Weather View 32 v60,2013-10-23 02:30:00,
2013-10-22 21:59:00,39.0,28.6,29.44,WSW,248,3.0,8.0,66,0.00,,,-99.99,Weather View 32 v60,2013-10-23 02:59:00,
2013-10-22 22:00:00,37.0,28.1,30.08,NNE,22,0.0,0.0,70,0.00,,,-99.99,Weather View 32 v60,2013-10-23 03:00:00,
2013-10-22 22:05:00,39.0,28.6,29.44,WSW,248,3.0,8.0,66,0.00,,,-99.99,Weather View 32 v60,2013-10-23 03:05:00,
2013-10-22 22:29:00,38.0,28.7,29.44,North,0,1.0,6.0,69,0.00,,,-99.99,Weather View 32 v60,2013-10-23 03:29:00,
2013-10-22 22:30:00,36.0,27.8,30.09,NE,45,0.0,0.0,72,0.00,,,-99.99,Weather View 32 v60,2013-10-23 03:30:00,
2013-10-22 22:59:00,37.0,28.1,29.44,NNE,22,0.0,5.0,70,0.00,,,-99.99,Weather View 32 v60,2013-10-23 03:59:00,
2013-10-22 23:00:00,34.0,26.9,30.08,ENE,68,0.0,0.0,75,0.00,,,-99.99,Weather View 32 v60,2013-10-23 04:00:00,
2013-10-22 23:05:00,37.0,28.1,29.44,NNE,22,0.0,5.0,70,0.00,,,-99.99,Weather View 32 v60,2013-10-23 04:05:00,
2013-10-22 23:29:00,36.0,28.2,29.44,NNW,338,1.0,5.0,73,0.00,,,-99.99,Weather View 32 v60,2013-10-23 04:29:00,
2013-10-22 23:30:00,33.0,26.6,30.09,NNE,22,0.0,0.0,77,0.00,,,-99.99,Weather View 32 v60,2013-10-23 04:30:00,
2013-10-22 23:59:00,35.0,27.9,29.44,NNW,338,0.0,5.0,75,0.00,,,-99.99,Weather View 32 v60,2013-10-23 04:59:00,